Lake George, Minnesota
Current Conditions -  °F | °C
As of 9:32 PM on Friday 28 Nov 2014 (Local Time) from KBJI Reporting Station
Broken Clouds Broken Clouds  
Wind Chill:   Ceiling: 12000
Heat Index: 16°   Visibility: 10mi
Dew Point: 11°   Wind: 14mph
Humidity: 81%   Direction: 140°SE
Pressure: 29.63"   Gusts: NA
Location:  47.2°N, 94.99°W
Report Text: KBJI 290332Z AUTO 14012KT 10SM SCT025 SCT100 BKN120 M09/M12 A2963 RMK AO2 T10911118
Loading
Personal Weather Stations






























Interactive Weather Map New forecast layout! Learn more

10-Day Weather Forecast

Advertisements
Track Severe Weather on mobile